Hlavní strana
METAR-TAF:

METAR-TAF

Letiště :

Madison, Indiana, Spojené státy americké

zeměpisná šířka: 38-45-36N, zeměpisná délka: 085-27-53W, výška: 250 m

Aktuální stav počasí

Zpráva byla vytvořena před 25 minutami, v 17:55 UTC
Západní vítr 9 kt, proměnlivý mezi jihozápadním a západoseverozápadním
Teplota 0°C
Vlhkost vzduchu 93%
Tlak 1006 hPa

METAR: KIMS 161755Z AUTO 26009KT 229V289 00/M01 A2971 RMK AO1

Čas: 13:20 (18:20 UTC)


TAF: chybějící

Stav a předpovědi počasí z více než 4 000 letišť (zprávy METAR a TAF).

Červené a žluté tečky na mapě představují dostupné meteorologické stanice.

Když kurzor umístíte na tečku, zobrazí se název stanice.

Pak kliknutím zobrazíte stav a předpověď počasí.

Chcete-li změnit mapu, kliknutím na zelené tlačítko se znaménkem +mapu přiblížíte, kliknutím na zelené tlačítko se znaménkem – mapu oddálíte a kliknutím na zelené šipky přejdete na sousední mapy.


METAR-TAF: